Time;durP1;ratioP1;P1;durP2;ratioP2;P2;SDS_P1;SDS_P2;PMS_P1;PMS_P2;Temp;Humidity;BMP_temperature;BMP_pressure;BME280_temperature;BME280_humidity;BME280_pressure;Samples;Min_cycle;Max_cycle;Signal;HPM_P1;HPM_P2
2022/01/27 00:01:48;;;;;;;45.30;25.83;;;;;;;4.21;67.96;100387.81;4985667;28;20046;-77
2022/01/27 00:04:21;;;;;;;33.58;16.60;;;;;;;4.34;67.48;100388.97;4988804;28;20190;-71
2022/01/27 00:06:48;;;;;;;26.80;14.70;;;;;;;4.36;67.53;100389.75;4987540;28;20457;-70
2022/01/27 00:09:24;;;;;;;36.75;17.92;;;;;;;4.38;67.44;100385.28;4992844;28;20100;-72
2022/01/27 00:11:51;;;;;;;36.60;21.83;;;;;;;4.37;67.54;100385.38;4989057;28;20046;-73
2022/01/27 00:14:20;;;;;;;44.55;25.85;;;;;;;4.30;67.75;100379.53;4987863;28;20075;-75
2022/01/27 00:16:58;;;;;;;45.55;24.60;;;;;;;4.34;67.68;100377.66;4989313;28;20085;-75
2022/01/27 00:19:26;;;;;;;42.67;25.55;;;;;;;4.26;67.65;100371.94;4987933;28;20965;-69
2022/01/27 00:21:53;;;;;;;33.75;21.42;;;;;;;4.27;67.64;100371.00;4987931;28;20064;-75
2022/01/27 00:24:20;;;;;;;36.92;17.70;;;;;;;4.24;67.60;100379.84;4986730;28;20652;-72
2022/01/27 00:26:47;;;;;;;40.08;21.35;;;;;;;4.21;67.50;100369.50;4985952;28;20085;-73
2022/01/27 00:29:14;;;;;;;32.63;17.27;;;;;;;4.20;67.42;100376.50;4994688;28;20079;-73
2022/01/27 00:31:41;;;;;;;38.80;22.20;;;;;;;4.09;67.31;100368.28;5027511;28;20401;-69
2022/01/27 00:34:13;;;;;;;33.03;15.60;;;;;;;4.14;67.71;100375.91;5029893;28;20218;-72
2022/01/27 00:36:50;;;;;;;34.70;15.95;;;;;;;4.25;67.46;100370.22;5031147;28;20073;-73
2022/01/27 00:39:20;;;;;;;34.15;16.55;;;;;;;4.29;67.45;100382.25;5029757;28;20745;-69
2022/01/27 00:41:47;;;;;;;33.97;14.85;;;;;;;4.31;67.40;100370.81;5029761;28;20468;-70
2022/01/27 00:44:15;;;;;;;44.47;22.58;;;;;;;4.28;67.54;100370.09;5012246;28;20575;-71
2022/01/27 00:46:42;;;;;;;39.45;19.85;;;;;;;4.26;67.53;100367.53;5029769;28;20058;-73
2022/01/27 00:49:11;;;;;;;35.35;16.90;;;;;;;4.33;67.60;100371.56;5031745;28;20054;-67
2022/01/27 00:51:40;;;;;;;47.15;22.02;;;;;;;4.30;67.62;100379.53;5032426;28;20498;-68
2022/01/27 00:54:12;;;;;;;38.10;16.98;;;;;;;4.35;67.54;100374.97;5032630;28;20054;-73
2022/01/27 00:56:47;;;;;;;52.10;24.27;;;;;;;4.32;67.60;100372.50;5032858;28;20103;-71
2022/01/27 00:59:32;;;;;;;38.25;19.17;;;;;;;4.33;67.55;100373.34;5032575;28;20050;-70
2022/01/27 01:02:07;;;;;;;31.88;13.95;;;;;;;4.39;67.42;100375.69;5036031;28;20105;-75
2022/01/27 01:04:40;;;;;;;45.10;20.17;;;;;;;4.37;67.65;100369.66;5042935;28;20115;-69
2022/01/27 01:07:08;;;;;;;52.53;17.23;;;;;;;4.43;67.57;100372.03;5042845;28;20072;-76
2022/01/27 01:10:22;;;;;;;33.58;17.17;;;;;;;4.44;67.57;100363.25;5039290;28;20602;-69
2022/01/27 01:15:37;;;;;;;44.15;18.90;;;;;;;4.37;67.35;100370.50;4973572;28;20318;-69
2022/01/27 01:18:19;;;;;;;35.00;16.80;;;;;;;4.41;67.64;100368.59;4970932;28;20051;-70
2022/01/27 01:21:18;;;;;;;40.05;17.25;;;;;;;4.48;67.64;100366.56;4969789;28;20054;-70
2022/01/27 01:29:52;;;;;;;60.88;22.83;;;;;;;4.28;67.69;100357.00;4969970;28;20125;-72
2022/01/27 01:32:31;;;;;;;47.22;15.70;;;;;;;4.36;67.69;100353.16;4976167;28;20065;-69
2022/01/27 01:35:00;;;;;;;62.22;26.05;;;;;;;4.37;67.56;100359.22;4978502;28;20116;-71
2022/01/27 01:37:28;;;;;;;42.75;15.77;;;;;;;4.41;67.61;100355.53;4978575;28;20054;-76
2022/01/27 01:39:55;;;;;;;55.03;19.77;;;;;;;4.43;67.66;100352.84;4979694;28;20245;-67
2022/01/27 01:42:22;;;;;;;51.97;20.70;;;;;;;4.42;67.61;100345.94;4980738;28;20070;-71
2022/01/27 01:44:49;;;;;;;52.15;19.90;;;;;;;4.48;67.74;100350.88;4975735;28;20086;-69
2022/01/27 01:47:20;;;;;;;58.97;24.42;;;;;;;4.46;67.63;100343.09;4973586;28;20043;-70
2022/01/27 01:49:47;;;;;;;52.13;27.70;;;;;;;4.41;67.68;100345.06;5001642;28;20049;-71
2022/01/27 01:52:14;;;;;;;42.25;15.75;;;;;;;4.40;67.53;100343.38;5031852;28;20132;-71
2022/01/27 01:54:43;;;;;;;57.60;26.58;;;;;;;4.39;67.67;100339.06;5031169;28;20140;-72
2022/01/27 01:57:10;;;;;;;55.22;26.25;;;;;;;4.33;67.67;100341.97;5029822;28;20049;-68
2022/01/27 01:59:37;;;;;;;52.45;25.30;;;;;;;4.26;67.83;100356.25;5034099;28;20132;-75
2022/01/27 02:02:04;;;;;;;55.63;24.48;;;;;;;4.28;67.85;100336.94;5033119;28;20133;-70
2022/01/27 02:04:31;;;;;;;65.38;36.53;;;;;;;4.27;67.78;100332.63;5030952;28;20508;-71
2022/01/27 02:07:03;;;;;;;63.15;24.88;;;;;;;4.26;67.81;100324.88;5029736;28;20045;-72
2022/01/27 02:09:47;;;;;;;45.17;17.27;;;;;;;4.38;67.74;100334.78;5012411;28;20099;-75
2022/01/27 02:18:06;;;;;;;55.03;25.58;;;;;;;4.28;67.80;100323.88;4987629;28;20844;-76
2022/01/27 02:20:37;;;;;;;60.15;26.10;;;;;;;4.33;67.84;100327.13;4989494;28;20058;-78
2022/01/27 02:23:05;;;;;;;66.65;29.55;;;;;;;4.26;67.87;100319.63;4989079;28;20125;-68
2022/01/27 02:25:32;;;;;;;72.53;30.38;;;;;;;4.21;67.96;100327.66;4989265;28;20102;-71
2022/01/27 02:28:00;;;;;;;42.60;18.65;;;;;;;4.25;67.86;100326.63;4990789;28;20088;-70
2022/01/27 02:30:27;;;;;;;50.55;21.90;;;;;;;4.29;67.95;100316.88;4989816;28;20076;-70
2022/01/27 02:32:55;;;;;;;60.30;28.83;;;;;;;4.35;67.87;100312.22;4990054;28;20133;-68
2022/01/27 02:35:25;;;;;;;67.47;36.47;;;;;;;4.30;67.91;100303.72;4989053;28;20042;-70
2022/01/27 02:37:54;;;;;;;61.75;24.98;;;;;;;4.25;67.92;100307.47;4986365;28;20046;-69
2022/01/27 02:40:35;;;;;;;55.60;20.75;;;;;;;4.30;67.90;100303.72;4985803;28;20054;-72
2022/01/27 02:43:03;;;;;;;49.70;20.10;;;;;;;4.39;67.77;100297.22;4985500;28;20050;-71
2022/01/27 02:45:37;;;;;;;57.25;29.23;;;;;;;4.39;67.75;100305.06;4985297;28;20491;-68
2022/01/27 02:48:04;;;;;;;51.97;22.65;;;;;;;4.38;67.77;100303.41;4985057;28;20062;-68
2022/01/27 02:50:32;;;;;;;73.90;32.30;;;;;;;4.29;67.70;100301.19;4984937;28;20043;-68
2022/01/27 02:53:00;;;;;;;68.00;25.95;;;;;;;4.29;68.14;100302.03;4992743;28;20045;-69
2022/01/27 02:55:27;;;;;;;49.65;18.05;;;;;;;4.42;67.96;100296.25;5027953;28;20524;-74
2022/01/27 02:57:57;;;;;;;60.38;23.00;;;;;;;4.44;67.84;100299.63;5027670;28;20048;-73
2022/01/27 03:00:24;;;;;;;68.70;29.40;;;;;;;4.40;67.87;100296.31;5027934;28;20045;-74
2022/01/27 03:02:51;;;;;;;62.90;24.70;;;;;;;4.43;67.78;100295.31;5027497;28;20053;-70
2022/01/27 03:05:19;;;;;;;60.20;25.90;;;;;;;4.37;67.92;100299.06;5030125;28;20055;-74
2022/01/27 03:07:48;;;;;;;71.55;29.90;;;;;;;4.33;67.87;100294.91;5032181;28;20053;-73
2022/01/27 03:10:17;;;;;;;68.28;33.53;;;;;;;4.28;68.12;100289.03;5032747;28;20052;-75
2022/01/27 03:12:44;;;;;;;83.03;44.55;;;;;;;4.21;68.13;100280.63;5027015;28;20148;-68
2022/01/27 03:15:12;;;;;;;75.97;42.22;;;;;;;4.13;68.28;100288.81;5027946;28;20045;-70
2022/01/27 03:17:39;;;;;;;68.20;26.67;;;;;;;4.17;68.27;100273.84;5027301;28;20049;-70
2022/01/27 03:20:08;;;;;;;56.90;22.30;;;;;;;4.26;68.16;100277.81;5026599;28;20049;-73
2022/01/27 03:22:35;;;;;;;72.07;28.15;;;;;;;4.30;68.14;100281.97;5027155;28;20468;-72
2022/01/27 03:25:03;;;;;;;67.50;33.75;;;;;;;4.22;68.32;100283.16;5026326;28;20046;-72
2022/01/27 03:27:33;;;;;;;52.17;23.70;;;;;;;4.34;68.18;100292.22;5026199;28;20081;-73
2022/01/27 03:30:00;;;;;;;83.63;37.53;;;;;;;4.25;68.17;100292.66;5027205;28;20049;-72
2022/01/27 03:32:27;;;;;;;75.43;34.42;;;;;;;4.21;68.28;100297.16;5025166;28;20083;-77
2022/01/27 03:34:54;;;;;;;85.57;43.47;;;;;;;4.20;68.24;100297.25;5027067;28;20049;-72
2022/01/27 03:37:21;;;;;;;62.63;26.20;;;;;;;4.28;68.15;100297.72;5027151;28;20416;-69
2022/01/27 03:39:48;;;;;;;79.03;34.25;;;;;;;4.36;68.00;100282.53;5026011;28;20056;-70
2022/01/27 03:42:15;;;;;;;81.47;31.00;;;;;;;4.30;68.17;100280.19;5026302;28;20124;-71
2022/01/27 03:44:43;;;;;;;61.17;26.63;;;;;;;4.40;68.24;100286.69;5035983;28;20137;-70
2022/01/27 03:47:10;;;;;;;84.95;38.80;;;;;;;4.34;68.05;100273.06;5032054;28;20102;-71
2022/01/27 03:49:37;;;;;;;68.70;29.58;;;;;;;4.32;68.25;100283.59;5031689;28;20079;-68
2022/01/27 03:52:05;;;;;;;63.45;23.80;;;;;;;4.39;68.03;100286.75;5037222;28;20133;-67
2022/01/27 03:54:32;;;;;;;67.05;29.80;;;;;;;4.42;68.07;100285.78;5034416;28;20494;-72
2022/01/27 03:57:00;;;;;;;67.78;23.23;;;;;;;4.45;67.96;100280.41;5034229;28;20046;-69
2022/01/27 03:59:27;;;;;;;72.32;30.08;;;;;;;4.45;68.05;100283.88;5030677;28;20129;-73
2022/01/27 04:01:56;;;;;;;67.50;24.60;;;;;;;4.52;67.96;100276.56;5028257;28;20534;-71
2022/01/27 04:04:23;;;;;;;78.85;37.75;;;;;;;4.50;67.88;100271.44;5029818;28;20510;-68
2022/01/27 04:06:52;;;;;;;74.28;32.65;;;;;;;4.40;67.95;100259.72;5030298;28;20133;-70
2022/01/27 04:09:19;;;;;;;76.50;31.90;;;;;;;4.36;68.14;100251.16;5029777;28;20129;-70
2022/01/27 04:11:47;;;;;;;62.08;23.88;;;;;;;4.42;67.83;100252.63;5029144;28;20049;-71
2022/01/27 04:14:14;;;;;;;80.47;35.30;;;;;;;4.47;67.93;100245.44;5029535;28;20153;-69
2022/01/27 04:16:42;;;;;;;83.05;32.33;;;;;;;4.45;67.99;100251.63;5011753;28;20397;-73
2022/01/27 04:19:10;;;;;;;72.82;25.33;;;;;;;4.46;68.07;100242.88;5030383;28;20050;-70
2022/01/27 04:21:37;;;;;;;64.13;26.25;;;;;;;4.49;67.91;100247.97;5030143;28;20124;-74
2022/01/27 04:24:05;;;;;;;77.05;31.55;;;;;;;4.48;67.96;100231.41;5029207;28;20129;-71
2022/01/27 04:26:39;;;;;;;87.57;37.22;;;;;;;4.49;67.84;100234.91;5030551;28;20144;-74
2022/01/27 04:29:07;;;;;;;57.53;21.27;;;;;;;4.54;67.89;100236.38;5031436;28;20061;-71
2022/01/27 04:31:34;;;;;;;80.03;29.10;;;;;;;4.48;67.89;100241.88;5030211;28;20061;-73
2022/01/27 04:34:01;;;;;;;82.25;34.08;;;;;;;4.49;67.99;100233.13;5029079;28;20049;-75
2022/01/27 04:36:32;;;;;;;61.65;21.30;;;;;;;4.57;67.79;100223.16;5031221;28;20049;-71
2022/01/27 04:39:09;;;;;;;81.47;32.88;;;;;;;4.59;67.72;100220.44;5012738;28;20448;-75
2022/01/27 04:41:42;;;;;;;63.72;24.05;;;;;;;4.63;67.69;100237.69;5029574;28;20053;-73
2022/01/27 04:44:18;;;;;;;73.40;28.13;;;;;;;4.66;67.84;100240.16;5029511;28;20060;-76
2022/01/27 04:46:50;;;;;;;67.43;25.20;;;;;;;4.69;67.74;100240.00;5028987;28;20041;-71
2022/01/27 04:49:17;;;;;;;53.60;22.27;;;;;;;4.69;67.64;100240.00;5029631;28;20041;-75
2022/01/27 04:51:46;;;;;;;58.78;24.23;;;;;;;4.69;67.75;100224.31;5028421;28;20153;-71
2022/01/27 04:54:18;;;;;;;79.68;35.95;;;;;;;4.65;67.70;100232.41;5028548;28;20133;-73
2022/01/27 04:56:46;;;;;;;93.60;36.58;;;;;;;4.59;67.81;100228.28;5029174;28;20107;-72
2022/01/27 04:59:20;;;;;;;73.90;25.17;;;;;;;4.67;67.79;100230.56;5028598;28;20072;-71
2022/01/27 05:01:51;;;;;;;81.23;33.23;;;;;;;4.69;67.45;100228.69;5037565;28;20431;-74
2022/01/27 05:04:20;;;;;;;67.68;26.73;;;;;;;4.69;67.67;100215.63;5033392;28;20080;-70
2022/01/27 05:06:50;;;;;;;59.22;24.13;;;;;;;4.69;67.63;100200.75;5011225;28;20433;-71
2022/01/27 05:09:17;;;;;;;63.30;26.90;;;;;;;4.75;67.75;100199.59;5028668;28;20052;-72
2022/01/27 05:11:50;;;;;;;70.72;26.67;;;;;;;4.72;67.64;100187.53;5029431;28;20064;-69
2022/01/27 05:14:20;;;;;;;65.95;26.48;;;;;;;4.74;67.64;100179.63;5027797;28;20137;-69
2022/01/27 05:16:49;;;;;;;60.53;22.60;;;;;;;4.75;67.60;100186.53;5027520;28;20084;-73
2022/01/27 05:19:16;;;;;;;82.07;32.58;;;;;;;4.76;67.64;100185.63;5027458;28;20118;-69
2022/01/27 05:21:43;;;;;;;62.85;28.00;;;;;;;4.77;67.65;100185.53;5027425;28;20076;-66
2022/01/27 05:24:13;;;;;;;58.05;26.67;;;;;;;4.74;67.60;100200.56;5028315;28;20132;-69
2022/01/27 05:26:41;;;;;;;48.53;21.63;;;;;;;4.78;67.67;100196.84;5027859;28;20045;-70
2022/01/27 05:29:09;;;;;;;59.65;26.60;;;;;;;4.75;67.68;100186.53;5027696;28;20132;-72
2022/01/27 05:31:37;;;;;;;46.58;18.73;;;;;;;4.75;67.51;100179.53;5028786;28;20052;-70
2022/01/27 05:34:04;;;;;;;45.45;18.20;;;;;;;4.80;67.54;100184.53;5026259;28;20083;-70
2022/01/27 05:36:33;;;;;;;47.45;23.30;;;;;;;4.81;67.45;100180.13;5027881;28;20528;-74
2022/01/27 05:39:01;;;;;;;43.80;20.73;;;;;;;4.77;67.59;100180.31;5029120;28;20046;-72
2022/01/27 05:41:29;;;;;;;49.53;21.38;;;;;;;4.81;67.57;100182.75;5028658;28;20148;-75
2022/01/27 05:43:56;;;;;;;44.08;20.95;;;;;;;4.74;67.35;100180.47;5027032;28;20410;-73
2022/01/27 05:46:23;;;;;;;42.63;22.65;;;;;;;4.74;67.47;100184.84;5027906;28;20049;-71
2022/01/27 05:48:50;;;;;;;36.13;18.75;;;;;;;4.73;67.50;100170.06;5028040;28;20136;-69
2022/01/27 05:51:18;;;;;;;35.85;18.83;;;;;;;4.76;67.63;100167.31;5027768;28;20056;-76
2022/01/27 05:53:45;;;;;;;52.53;23.92;;;;;;;4.75;67.38;100179.53;5026806;28;20128;-68
2022/01/27 05:56:11;;;;;;;46.35;24.73;;;;;;;4.70;67.31;100167.59;5025857;28;20588;-69
2022/01/27 05:58:40;;;;;;;50.03;26.38;;;;;;;4.68;67.42;100172.06;5026290;28;20079;-68
2022/01/27 06:01:07;;;;;;;43.60;20.85;;;;;;;4.71;67.34;100164.91;5027292;28;20132;-70
2022/01/27 06:03:34;;;;;;;49.53;24.85;;;;;;;4.73;67.32;100165.66;5025314;28;20413;-71
2022/01/27 06:06:01;;;;;;;42.10;22.58;;;;;;;4.73;67.08;100162.22;5027572;28;20605;-67
2022/01/27 06:08:29;;;;;;;56.33;25.35;;;;;;;4.74;67.40;100150.84;5027466;28;20413;-71
2022/01/27 06:10:59;;;;;;;51.75;24.52;;;;;;;4.74;67.39;100148.22;5027421;28;20049;-68
2022/01/27 06:13:27;;;;;;;40.92;18.83;;;;;;;4.74;67.39;100128.13;5029275;28;20128;-75
2022/01/27 06:15:55;;;;;;;48.97;23.60;;;;;;;4.71;67.47;100143.13;5013619;28;20055;-70
2022/01/27 06:18:22;;;;;;;55.42;23.77;;;;;;;4.72;67.58;100140.44;5030207;28;20064;-68
2022/01/27 06:20:49;;;;;;;41.80;16.50;;;;;;;4.76;67.48;100133.28;5040927;28;20049;-66
2022/01/27 06:23:16;;;;;;;82.07;31.48;;;;;;;4.74;67.68;100124.69;5042624;28;20114;-69
2022/01/27 06:25:43;;;;;;;59.20;25.02;;;;;;;4.73;67.50;100118.56;5037352;28;20109;-71
2022/01/27 06:28:10;;;;;;;70.53;29.20;;;;;;;4.78;67.54;100113.97;5037804;28;20133;-68
2022/01/27 06:30:37;;;;;;;82.75;34.58;;;;;;;4.76;67.53;100115.81;5039682;28;20052;-70
2022/01/27 06:33:06;;;;;;;70.50;27.60;;;;;;;4.77;67.60;100107.06;5042252;28;20065;-71
2022/01/27 06:35:34;;;;;;;54.58;24.45;;;;;;;4.81;67.52;100106.88;5046117;28;20038;-77
2022/01/27 06:38:01;;;;;;;64.85;26.23;;;;;;;4.82;67.60;100108.56;5040273;28;20064;-76
2022/01/27 06:40:34;;;;;;;72.55;31.50;;;;;;;4.82;67.48;100113.81;5041548;28;20105;-80
2022/01/27 06:43:01;;;;;;;70.90;27.52;;;;;;;4.84;67.58;100112.78;4979018;28;20137;-78
2022/01/27 06:45:28;;;;;;;57.58;21.85;;;;;;;4.86;67.48;100110.97;4976425;28;20682;-73
2022/01/27 06:47:55;;;;;;;92.60;37.90;;;;;;;4.86;67.45;100099.63;4967714;28;20140;-78
2022/01/27 06:50:28;;;;;;;64.15;25.33;;;;;;;4.89;67.51;100086.41;4966713;28;20055;-73
2022/01/27 06:52:55;;;;;;;77.38;32.72;;;;;;;4.90;67.41;100088.09;4970430;28;20733;-72
2022/01/27 06:55:22;;;;;;;70.78;27.23;;;;;;;4.92;67.44;100094.09;4987828;28;20054;-72
2022/01/27 06:57:50;;;;;;;67.82;30.50;;;;;;;4.89;67.49;100094.25;4993072;28;20641;-72
2022/01/27 07:00:18;;;;;;;79.10;32.25;;;;;;;4.91;67.36;100093.25;4998470;28;20030;-76
2022/01/27 07:02:46;;;;;;;68.10;30.02;;;;;;;4.93;67.52;100095.78;4994692;28;20125;-75
2022/01/27 07:05:15;;;;;;;76.53;30.75;;;;;;;4.96;67.43;100090.41;4997607;28;20222;-72
2022/01/27 07:07:44;;;;;;;70.32;26.25;;;;;;;4.96;67.51;100099.09;5024084;28;20148;-69
2022/01/27 07:10:13;;;;;;;80.20;33.80;;;;;;;4.99;67.55;100103.34;5048705;28;20052;-74
2022/01/27 07:12:41;;;;;;;62.78;25.75;;;;;;;5.01;67.38;100085.78;5045918;28;20045;-68
2022/01/27 07:15:09;;;;;;;98.47;40.95;;;;;;;5.02;67.33;100084.81;5047393;28;20132;-71
2022/01/27 07:17:36;;;;;;;72.00;29.42;;;;;;;5.01;67.33;100085.78;5043640;28;20133;-79
2022/01/27 07:20:04;;;;;;;86.05;31.58;;;;;;;5.04;67.49;100080.38;5045774;28;20056;-69
2022/01/27 07:22:33;;;;;;;71.82;30.60;;;;;;;5.04;67.39;100077.78;5050247;28;20049;-70
2022/01/27 07:25:02;;;;;;;79.35;34.22;;;;;;;4.98;67.36;100062.38;5043040;28;20641;-73
2022/01/27 07:27:30;;;;;;;69.78;30.58;;;;;;;4.90;67.59;100075.03;5045420;28;20643;-77
2022/01/27 07:29:57;;;;;;;63.85;26.67;;;;;;;4.87;67.72;100064.72;5044268;28;20128;-71
2022/01/27 07:32:24;;;;;;;81.38;35.60;;;;;;;4.86;67.77;100068.22;5044235;28;20052;-70
2022/01/27 07:34:52;;;;;;;75.57;31.98;;;;;;;4.85;67.77;100069.19;5053423;28;20290;-71
2022/01/27 07:37:20;;;;;;;73.40;30.38;;;;;;;4.85;67.86;100056.09;5054180;28;20143;-80
2022/01/27 07:39:47;;;;;;;67.18;24.73;;;;;;;4.92;67.79;100057.47;5051329;28;20076;-70
2022/01/27 07:42:16;;;;;;;54.63;24.95;;;;;;;4.98;67.80;100062.38;5053806;28;20057;-75
2022/01/27 07:44:43;;;;;;;81.00;33.10;;;;;;;4.97;67.64;100071.16;5056722;28;20060;-75
2022/01/27 07:47:12;;;;;;;66.32;28.55;;;;;;;5.02;67.65;100063.06;5051071;28;20184;-72
2022/01/27 07:49:39;;;;;;;60.63;28.00;;;;;;;5.04;67.56;100062.06;5047567;28;20101;-73
2022/01/27 07:52:07;;;;;;;70.35;31.02;;;;;;;5.03;67.65;100056.91;5045963;28;20116;-77
2022/01/27 07:54:34;;;;;;;62.50;25.58;;;;;;;5.00;67.72;100055.28;5045972;28;20382;-75
2022/01/27 07:57:01;;;;;;;58.45;26.58;;;;;;;5.01;67.69;100051.75;5043523;28;20481;-73
2022/01/27 07:59:29;;;;;;;61.67;26.55;;;;;;;4.99;67.74;100043.13;5043965;28;20515;-70
2022/01/27 08:01:56;;;;;;;63.70;29.25;;;;;;;5.04;67.58;100029.78;5043220;28;20104;-80
2022/01/27 08:04:24;;;;;;;61.88;27.98;;;;;;;5.06;67.63;100046.25;5045998;28;20095;-76
2022/01/27 08:06:51;;;;;;;52.75;26.63;;;;;;;5.05;67.66;100032.31;5041812;28;20049;-70
2022/01/27 08:09:18;;;;;;;61.88;29.88;;;;;;;5.09;67.62;100028.59;5042632;28;20041;-76
2022/01/27 08:11:46;;;;;;;67.43;32.03;;;;;;;5.08;67.59;100007.78;5047682;28;20077;-74
2022/01/27 08:14:13;;;;;;;56.92;28.75;;;;;;;5.12;67.58;100012.75;5048643;28;20251;-72
2022/01/27 08:16:42;;;;;;;48.08;23.42;;;;;;;5.21;67.61;100008.78;5043220;28;20370;-70
2022/01/27 08:19:09;;;;;;;59.67;26.65;;;;;;;5.27;67.47;100000.59;5043374;28;20051;-75
2022/01/27 08:21:39;;;;;;;58.72;24.33;;;;;;;5.34;67.55;100001.09;5045811;28;20128;-79
2022/01/27 08:24:06;;;;;;;65.70;28.02;;;;;;;5.41;67.44;99997.22;5045643;28;20080;-81
2022/01/27 08:26:38;;;;;;;56.55;31.17;;;;;;;5.40;67.15;99999.91;5043715;28;20561;-77
2022/01/27 08:29:11;;;;;;;59.85;28.88;;;;;;;5.45;67.04;99993.50;5043335;28;20045;-71
2022/01/27 08:31:54;;;;;;;51.83;24.95;;;;;;;5.49;67.03;99987.19;5045394;28;20087;-70
2022/01/27 08:34:30;;;;;;;60.03;29.52;;;;;;;5.53;67.02;99998.34;5045944;28;20462;-71
2022/01/27 08:36:56;;;;;;;;;;;;;;;5.78;66.53;99995.19;5048093;28;20385;-70
2022/01/27 08:39:24;;;;;;;41.58;21.85;;;;;;;5.55;66.75;99994.69;5047237;28;20125;-69
2022/01/27 08:41:51;;;;;;;53.25;24.92;;;;;;;5.46;67.19;99983.88;5045743;28;20041;-71
2022/01/27 08:44:18;;;;;;;56.55;33.10;;;;;;;5.39;66.72;100001.69;5049005;28;20079;-72
2022/01/27 08:46:45;;;;;;;50.58;23.17;;;;;;;5.36;66.86;99989.59;5054934;28;20109;-72
2022/01/27 08:49:12;;;;;;;62.05;26.30;;;;;;;5.45;66.88;99988.25;5055037;28;20075;-68
2022/01/27 08:51:41;;;;;;;43.30;21.70;;;;;;;5.47;66.90;99985.56;5040378;28;20063;-69
2022/01/27 08:54:08;;;;;;;56.38;28.25;;;;;;;5.46;66.83;99979.47;5048465;28;20144;-70
2022/01/27 08:56:35;;;;;;;41.33;20.73;;;;;;;5.51;66.84;99982.69;5052535;28;20388;-72
2022/01/27 08:59:03;;;;;;;53.67;29.75;;;;;;;5.54;66.71;99982.50;5049249;28;20734;-70
2022/01/27 09:01:30;;;;;;;55.33;28.38;;;;;;;5.55;66.64;99978.13;5048487;28;20044;-71
2022/01/27 09:03:57;;;;;;;50.05;24.73;;;;;;;5.62;66.59;99978.59;5047029;28;20060;-75
2022/01/27 09:06:25;;;;;;;50.88;29.30;;;;;;;5.61;66.54;99959.44;5049506;28;20108;-73
2022/01/27 09:08:54;;;;;;;43.03;22.42;;;;;;;5.66;66.68;99969.66;5047949;28;20743;-75
2022/01/27 09:11:22;;;;;;;52.40;26.83;;;;;;;5.68;66.64;99959.94;5046720;28;20048;-74
2022/01/27 09:13:49;;;;;;;45.05;22.33;;;;;;;5.64;66.37;99967.13;5048629;28;20124;-70
2022/01/27 09:16:17;;;;;;;35.63;19.63;;;;;;;5.63;66.56;99956.72;5048394;28;20126;-72
2022/01/27 09:18:45;;;;;;;43.80;23.33;;;;;;;5.64;66.62;99950.56;5045071;28;20627;-72
2022/01/27 09:21:19;;;;;;;52.22;27.27;;;;;;;5.64;66.46;99948.78;5049494;28;20227;-72
2022/01/27 09:23:47;;;;;;;41.92;19.10;;;;;;;5.63;66.50;99949.69;5054672;28;20053;-72
2022/01/27 09:26:39;;;;;;;34.25;20.33;;;;;;;5.67;66.63;99951.25;5049439;28;20056;-78
2022/01/27 09:29:06;;;;;;;38.03;19.10;;;;;;;5.72;66.22;99945.72;5050188;28;20052;-76
2022/01/27 09:31:33;;;;;;;37.53;20.98;;;;;;;5.74;66.39;99947.34;5033874;28;20701;-78
2022/01/27 09:34:00;;;;;;;40.90;20.88;;;;;;;5.71;66.17;99936.19;5054565;28;20051;-77
2022/01/27 09:36:27;;;;;;;43.15;25.75;;;;;;;5.73;66.24;99935.16;5063535;28;20044;-74
2022/01/27 09:38:57;;;;;;;36.63;19.58;;;;;;;5.69;65.93;99933.66;5035313;28;20045;-79
2022/01/27 09:41:27;;;;;;;36.70;17.35;;;;;;;5.72;66.02;99932.63;5053761;28;20037;-79
2022/01/27 09:43:55;;;;;;;38.47;20.98;;;;;;;5.73;66.07;99922.06;5054365;28;20059;-75
2022/01/27 09:46:27;;;;;;;28.83;16.27;;;;;;;5.78;66.20;99911.31;5053535;28;20053;-80
2022/01/27 09:48:54;;;;;;;35.03;18.77;;;;;;;5.68;65.80;99924.09;5041390;28;20051;-74
2022/01/27 09:51:37;;;;;;;26.77;17.17;;;;;;;5.73;65.94;99918.59;5056556;28;20045;-79
2022/01/27 09:54:05;;;;;;;34.15;19.65;;;;;;;5.77;65.93;99912.25;5055840;28;20079;-76
2022/01/27 09:56:40;;;;;;;30.45;16.52;;;;;;;5.78;65.82;99903.47;5037048;28;20037;-79
2022/01/27 09:59:07;;;;;;;40.05;18.90;;;;;;;5.89;65.86;99897.59;5048479;28;20049;-81
2022/01/27 10:01:35;;;;;;;45.03;22.88;;;;;;;5.96;65.70;99893.69;5049069;28;20091;-74
2022/01/27 10:04:04;;;;;;;23.73;12.93;;;;;;;5.98;65.60;99893.59;5047859;28;20136;-82
2022/01/27 10:06:34;;;;;;;41.53;21.15;;;;;;;6.03;65.56;99878.44;5049779;28;20490;-74
2022/01/27 10:09:12;;;;;;;45.15;22.60;;;;;;;6.17;65.69;99870.56;5050217;28;20060;-73
2022/01/27 10:11:43;;;;;;;34.28;17.13;;;;;;;6.22;65.31;99862.44;5051095;28;20520;-78
2022/01/27 10:14:24;;;;;;;43.42;21.02;;;;;;;6.31;65.22;99854.84;5045928;28;20057;-79
2022/01/27 10:16:54;;;;;;;44.38;21.90;;;;;;;6.32;64.68;99859.16;5048228;28;20164;-78
2022/01/27 10:19:25;;;;;;;39.60;16.85;;;;;;;6.37;65.04;99860.66;5051634;28;20044;-73
2022/01/27 10:22:00;;;;;;;31.75;21.13;;;;;;;6.42;64.99;99867.31;5045926;28;20045;-79
2022/01/27 10:24:31;;;;;;;40.13;18.30;;;;;;;6.48;64.89;99850.34;5049957;28;20045;-79
2022/01/27 10:27:27;;;;;;;17.77;11.57;;;;;;;6.48;64.93;99858.22;5046828;28;20102;-79
2022/01/27 10:32:40;;;;;;;24.45;15.23;;;;;;;6.26;64.31;99854.28;4936280;28;20507;-71
2022/01/27 10:35:10;;;;;;;29.73;15.07;;;;;;;6.22;64.37;99834.44;4962651;28;20042;-80
2022/01/27 10:37:58;;;;;;;22.45;13.45;;;;;;;6.30;64.54;99829.56;4967989;28;20058;-75
2022/01/27 10:40:29;;;;;;;28.85;19.98;;;;;;;6.28;63.88;99826.22;4968792;28;20648;-78
2022/01/27 10:43:24;;;;;;;21.77;13.77;;;;;;;6.18;63.52;99821.63;4964786;28;20125;-79
2022/01/27 10:46:08;;;;;;;18.40;10.48;;;;;;;6.21;63.56;99814.41;4885870;29;20102;-76
2022/01/27 10:48:40;;;;;;;31.77;17.70;;;;;;;6.26;63.78;99814.09;4885180;29;20056;-76
2022/01/27 10:51:13;;;;;;;21.20;9.75;;;;;;;6.26;63.57;99812.31;4885348;29;20060;-75
2022/01/27 10:53:47;;;;;;;25.15;14.10;;;;;;;6.37;63.90;99798.53;4886387;29;20099;-78
2022/01/27 10:56:19;;;;;;;25.35;12.95;;;;;;;6.50;63.99;99796.84;4887572;29;20049;-83
2022/01/27 10:58:47;;;;;;;22.67;15.10;;;;;;;6.59;63.66;99786.69;4887505;29;20587;-78
2022/01/27 11:01:27;;;;;;;21.15;13.27;;;;;;;6.51;62.80;99782.78;4885566;29;20092;-72
2022/01/27 11:03:57;;;;;;;25.50;11.98;;;;;;;6.68;63.14;99792.22;4886782;29;20074;-72
2022/01/27 11:06:26;;;;;;;22.77;14.25;;;;;;;6.79;63.11;99782.78;4912227;28;20107;-75
2022/01/27 11:08:56;;;;;;;21.83;13.57;;;;;;;6.83;63.27;99773.81;4961459;28;20043;-72
2022/01/27 11:11:26;;;;;;;27.48;12.98;;;;;;;6.93;63.39;99761.75;4962532;28;20074;-70
2022/01/27 11:13:58;;;;;;;21.58;11.95;;;;;;;6.83;62.94;99779.06;4966576;28;20137;-80
2022/01/27 11:16:30;;;;;;;15.25;10.13;;;;;;;6.70;63.05;99766.72;4969884;28;20118;-77
2022/01/27 11:19:12;;;;;;;22.10;12.13;;;;;;;6.60;63.50;99768.25;4969711;28;20039;-78
2022/01/27 11:21:42;;;;;;;21.15;14.00;;;;;;;6.55;63.14;99769.47;4982454;28;20109;-72
2022/01/27 11:24:17;;;;;;;21.25;13.02;;;;;;;6.50;63.79;99767.16;5049039;28;20182;-70
2022/01/27 11:26:46;;;;;;;22.73;12.98;;;;;;;6.38;63.96;99760.88;5051367;28;20045;-73
2022/01/27 11:29:17;;;;;;;23.90;12.23;;;;;;;6.27;64.10;99763.34;5049477;28;20067;-71
2022/01/27 11:31:58;;;;;;;26.92;16.50;;;;;;;6.14;64.21;99755.41;5049730;28;20049;-69
2022/01/27 11:34:50;;;;;;;18.08;12.13;;;;;;;5.98;64.39;99763.38;5050795;28;20053;-75
2022/01/27 11:37:30;;;;;;;22.05;11.82;;;;;;;5.94;64.50;99741.72;5056023;28;20052;-72
2022/01/27 11:39:57;;;;;;;26.77;13.63;;;;;;;5.99;64.48;99735.38;5048072;28;20468;-70
2022/01/27 11:42:45;;;;;;;24.38;15.10;;;;;;;5.99;64.36;99738.84;5048190;28;20081;-70
2022/01/27 11:45:33;;;;;;;19.60;11.77;;;;;;;6.00;64.34;99729.22;5048793;28;20107;-76
2022/01/27 11:48:06;;;;;;;21.92;13.63;;;;;;;5.94;63.91;99728.63;5046363;28;20635;-73
2022/01/27 11:50:38;;;;;;;21.75;11.30;;;;;;;6.03;64.19;99727.25;5044944;28;20124;-75